Aeroporto :
LOGIN :

Iscrizione | Disclaimer

   EN    FR    IT 

 










Sommario :    VFR   VFR Marginale   IFR   IFR Intensivo   IFR Molto Intensivo
Visibilità : 
Base nubi : 
>= 8 km
>= 3000ft
5 / 8 km
1000 / 3000 ft
1500m / 5 km
500 / 1000 ft
800 / 1500m
200 / 500 ft
< 800m
< 200 ft
Simboli :   Temporali  Nebbia  Neve Forte  Precipitazioni Forti  Vento > 20 kt
SIGMETs :   Varie  Temporali  Ghiacco  Turbolenza  Onda orograficha  Ceneri Vulcaniche






- Altitudine del aeroporto : 37 ft


EHVL - Vlieland Heliport

ULTIMO METAR :
  • 261637Z AUTO 01025KT 5000 +DZRA FEW015CB SCT016 BKN023 14/12 Q1001 WHT

METARs OBSOLETI :
  • 261629Z AUTO 02026KT 9000 -DZ FEW012 FEW015CB SCT018 BKN022 14/12 Q1001 WHT
  • 261618Z AUTO 03020KT 9000 -RA FEW001 FEW015CB BKN016 BKN022 14/13 Q1001 WHT
  • 261604Z AUTO 02016G26KT 8000 -RA FEW001 SCT007 BKN012 14/13 Q1001 GRN
  • 261603Z AUTO 02016KT 6000 -RA FEW001 SCT013 BKN016 13/12 Q1001 GRN
  • 261555Z AUTO 02017KT 4300 +DZRA FEW011 SCT028 BKN031 13/12 Q1001 GRN
  • 261534Z AUTO 02018KT 9999 DZ FEW017 SCT032 BKN054 15/12 Q1001 BLU
  • 261513Z AUTO 36013KT 9999 FEW020 OVC058 16/12 Q1001 BLU
  • 261505Z AUTO 36011KT 9999 SCT020 SCT028 BKN061 16/12 Q1001 WHT
  • 261455Z AUTO 01010KT 9000 HZ OVC066 15/12 Q1001 BLU
  • 261440Z AUTO 01011KT 9999 FEW023 BKN066 OVC100 16/12 Q1001 BLU
  • 261430Z AUTO 36010KT 9999 SCT023 SCT069 OVC100 16/12 Q1001 WHT
  • 261413Z AUTO 01011KT 9999 FEW022 OVC110 15/12 Q1001 BLU
  • 261406Z AUTO 01011KT 7000 BR BKN021 OVC100 15/12 Q1000 WHT
  • 261355Z AUTO 34006KT 320V020 9999 SCT098 OVC100 15/12 Q1000 BLU
  • 261343Z AUTO 34007KT 9999 FEW024 OVC110 15/12 Q1000 BLU

Previsioni scadute.



MetMap, La meteo Aeronautica in un colpo d'occhio ! - Copyright ORBIFLY Dicembre 2007 - Disclaimer

ORBIFLY MET'MAP TEAM :

Programmazione e sviluppo : Alexandra Zaïnal
Concezione : Baudouin d'Aumeries
Aiuto per la programmazione : Marc-Olivier Méhu
Supporto tecnico e logistico : Manuel Goepfert
Aiuto per la traduzione : Arnaldo La Scala

Contatto : metmap@orbifly.com




FONTI E CREDITI :

   NOAA